Time;durP1;ratioP1;P1;durP2;ratioP2;P2;SDS_P1;SDS_P2;PMS_P1;PMS_P2;Temp;Humidity;BMP_temperature;BMP_pressure;BME280_temperature;BME280_humidity;BME280_pressure;Samples;Min_cycle;Max_cycle;Signal;HPM_P1;HPM_P2
2022/05/26 00:01:26;;;;;;;0.83;0.73;;;12.10;99.90;12.90;97245.00;;;;5037523;28;20201;-69
2022/05/26 00:04:15;;;;;;;5.47;0.80;;;12.00;99.90;13.10;97244.00;;;;5030248;28;20229;-68
2022/05/26 00:07:04;;;;;;;5.00;3.03;;;11.90;99.90;13.00;97249.00;;;;5033112;28;20208;-68
2022/05/26 00:09:53;;;;;;;0.80;0.67;;;11.90;99.90;13.10;97252.00;;;;5042336;28;20197;-68
2022/05/26 00:12:42;;;;;;;0.60;0.60;;;11.70;99.90;12.90;97238.00;;;;5030947;28;20222;-69
2022/05/26 00:15:33;;;;;;;3.40;0.83;;;11.80;99.90;12.90;97242.00;;;;5024434;28;20217;-68
2022/05/26 00:18:21;;;;;;;0.73;0.60;;;11.90;99.90;12.80;97245.00;;;;5022562;28;20208;-69
2022/05/26 00:21:10;;;;;;;2.03;1.07;;;11.90;99.90;12.90;97238.00;;;;5023646;28;20197;-68
2022/05/26 00:23:59;;;;;;;0.80;0.80;;;11.80;99.90;12.90;97245.00;;;;5038994;28;20873;-68
2022/05/26 00:26:48;;;;;;;1.73;1.20;;;11.60;99.90;12.80;97244.00;;;;5035186;28;20235;-69
2022/05/26 00:29:37;;;;;;;3.63;0.93;;;11.70;99.90;12.40;97245.00;;;;5030314;28;20197;-68
2022/05/26 00:32:29;;;;;;;2.53;0.60;;;11.60;99.90;12.50;97243.00;;;;5030633;28;20205;-69
2022/05/26 00:35:18;;;;;;;4.00;1.07;;;11.00;99.90;12.70;97238.00;;;;5027375;28;20210;-69
2022/05/26 00:38:09;;;;;;;1.90;0.67;;;11.50;99.90;12.60;97241.00;;;;5029400;28;20220;-68
2022/05/26 00:41:03;;;;;;;0.70;0.60;;;11.60;99.90;12.10;97234.00;;;;5024487;28;20204;-68
2022/05/26 00:43:51;;;;;;;1.73;0.67;;;11.30;99.90;12.30;97242.00;;;;5023914;28;20236;-68
2022/05/26 00:46:47;;;;;;;3.53;0.70;;;11.30;99.90;12.40;97246.00;;;;5029262;28;20593;-69
2022/05/26 00:49:43;;;;;;;1.10;1.00;;;11.40;99.90;12.50;97242.00;;;;5046161;28;20219;-69
2022/05/26 00:52:38;;;;;;;1.67;0.77;;;11.50;99.90;12.40;97247.00;;;;5027928;28;20267;-68
2022/05/26 00:55:29;;;;;;;0.73;0.70;;;11.40;99.90;12.30;97240.00;;;;5036292;28;20758;-68
2022/05/26 00:58:24;;;;;;;1.23;0.97;;;11.30;99.90;12.20;97240.00;;;;5034883;28;20244;-68
2022/05/26 01:01:13;;;;;;;5.33;0.80;;;11.20;99.90;12.20;97246.00;;;;5031466;28;20580;-68
2022/05/26 01:04:10;;;;;;;1.70;0.60;;;11.20;99.90;12.30;97239.00;;;;5034917;28;20224;-68
2022/05/26 01:07:10;;;;;;;1.43;0.73;;;11.10;99.90;12.30;97241.00;;;;5034626;28;20229;-69
2022/05/26 01:09:59;;;;;;;1.27;0.67;;;10.90;99.90;12.10;97236.00;;;;5044716;28;20200;-68
2022/05/26 01:12:48;;;;;;;1.23;0.60;;;11.20;99.90;12.10;97241.00;;;;5039180;28;20228;-68
2022/05/26 01:15:39;;;;;;;1.47;0.83;;;11.20;99.90;12.00;97246.00;;;;5026593;28;20224;-69
2022/05/26 01:18:43;;;;;;;1.20;0.87;;;11.00;99.90;11.90;97261.00;;;;5031451;28;20232;-68
2022/05/26 01:21:38;;;;;;;0.67;0.67;;;10.90;99.90;12.00;97262.00;;;;5029997;28;20208;-68
2022/05/26 01:24:54;;;;;;;2.10;1.17;;;11.00;99.90;12.00;97270.00;;;;5035888;28;20223;-68
2022/05/26 01:27:45;;;;;;;1.60;0.90;;;10.90;99.90;12.00;97267.00;;;;5025874;28;20217;-68
2022/05/26 01:30:43;;;;;;;0.90;0.83;;;10.90;99.90;11.70;97281.00;;;;5050486;28;20208;-68
2022/05/26 01:33:47;;;;;;;0.70;0.70;;;10.70;99.90;11.90;97277.00;;;;5029436;28;20236;-68
2022/05/26 01:36:43;;;;;;;2.33;0.57;;;10.80;99.90;12.00;97278.00;;;;5025666;28;20201;-68
2022/05/26 01:39:46;;;;;;;2.27;0.70;;;10.80;99.90;11.90;97263.00;;;;5033039;28;20234;-68
2022/05/26 01:42:46;;;;;;;1.93;1.10;;;10.80;99.90;11.90;97268.00;;;;5030040;28;20228;-68
2022/05/26 01:45:44;;;;;;;1.63;0.90;;;10.90;99.90;11.60;97254.00;;;;5028382;28;20189;-68
2022/05/26 01:48:41;;;;;;;5.00;1.00;;;10.90;99.90;11.30;97271.00;;;;5024099;28;20466;-68
2022/05/26 01:51:34;;;;;;;2.17;0.98;;;;;11.40;97264.00;;;;5033398;28;20406;-68
2022/05/26 01:54:31;;;;;;;3.20;1.30;;;10.60;99.90;11.40;97268.00;;;;5027552;28;20407;-68
2022/05/26 01:57:28;;;;;;;1.67;0.80;;;10.50;99.90;11.80;97272.00;;;;5033498;28;20201;-68
2022/05/26 02:00:20;;;;;;;0.90;0.80;;;10.60;99.90;11.90;97277.00;;;;5036778;28;20222;-68
2022/05/26 02:03:14;;;;;;;2.60;0.67;;;10.50;99.90;11.80;97271.00;;;;5034026;28;20236;-68
2022/05/26 02:06:13;;;;;;;0.63;0.63;;;10.80;99.90;11.80;97274.00;;;;5032326;28;20311;-68
2022/05/26 02:09:08;;;;;;;1.50;1.40;;;10.60;99.90;12.00;97274.00;;;;5032676;28;20198;-68
2022/05/26 02:12:10;;;;;;;0.63;0.63;;;10.80;99.90;12.00;97278.00;;;;5046003;28;20208;-68
2022/05/26 02:15:06;;;;;;;3.43;0.80;;;10.80;99.90;11.70;97274.00;;;;5033095;28;20200;-68
2022/05/26 02:18:03;;;;;;;1.03;0.73;;;10.70;99.90;11.90;97270.00;;;;5032041;28;20698;-68
2022/05/26 02:20:57;;;;;;;7.80;1.07;;;10.80;99.90;11.90;97277.00;;;;5030815;28;20217;-68
2022/05/26 02:23:55;;;;;;;0.83;0.73;;;10.70;99.90;11.90;97272.00;;;;5030389;28;20296;-68
2022/05/26 02:26:44;;;;;;;2.50;0.77;;;10.80;99.90;11.70;97273.00;;;;5031893;28;20624;-68
2022/05/26 02:32:42;;;;;;;0.73;0.60;;;10.60;99.90;11.60;97288.00;;;;5031600;28;20228;-68
2022/05/26 02:35:36;;;;;;;1.47;0.70;;;10.80;99.90;11.70;97294.00;;;;5047326;28;20204;-68
2022/05/26 02:38:27;;;;;;;4.37;0.90;;;10.50;99.90;11.80;97291.00;;;;5024975;28;20572;-68
2022/05/26 02:41:17;;;;;;;0.80;0.80;;;10.70;99.90;11.80;97289.00;;;;5030355;28;20208;-68
2022/05/26 02:44:07;;;;;;;0.83;0.83;;;10.60;99.90;11.60;97287.00;;;;5032538;28;20586;-68
2022/05/26 02:47:15;;;;;;;2.80;0.67;;;10.80;99.90;11.00;97303.00;;;;5038738;28;20221;-68
2022/05/26 02:50:19;;;;;;;1.17;0.90;;;10.40;99.90;11.10;97305.00;;;;5023367;28;20212;-68
2022/05/26 02:53:19;;;;;;;2.17;0.90;;;10.40;99.90;11.20;97306.00;;;;5030268;28;20224;-67
2022/05/26 02:56:14;;;;;;;4.83;1.20;;;10.20;99.90;11.30;97312.00;;;;5034581;28;20200;-68
2022/05/26 02:59:16;;;;;;;1.97;0.80;;;10.40;99.90;11.20;97315.00;;;;5031715;28;20204;-68
2022/05/26 03:02:10;;;;;;;3.30;0.70;;;10.30;99.90;11.30;97315.00;;;;5031257;28;20205;-68
2022/05/26 03:05:07;;;;;;;4.00;1.07;;;10.40;99.90;11.40;97325.00;;;;5035970;28;20579;-68
2022/05/26 03:08:01;;;;;;;0.77;0.73;;;10.40;99.90;11.40;97320.00;;;;5036360;28;20221;-68
2022/05/26 03:10:54;;;;;;;0.93;0.87;;;10.20;99.90;11.50;97317.00;;;;5032485;28;20205;-68
2022/05/26 03:13:42;;;;;;;0.80;0.80;;;10.10;99.90;11.70;97317.00;;;;5030908;28;20233;-67
2022/05/26 03:16:33;;;;;;;2.20;1.20;;;10.50;99.90;11.70;97319.00;;;;5040309;28;20205;-67
2022/05/26 03:19:22;;;;;;;0.90;0.90;;;10.50;99.90;11.60;97336.00;;;;5024333;28;20205;-68
2022/05/26 03:22:11;;;;;;;0.60;0.60;;;10.50;99.90;11.40;97331.00;;;;5031613;28;20228;-68
2022/05/26 03:24:59;;;;;;;2.83;1.00;;;10.50;99.90;11.40;97329.00;;;;5033291;28;20205;-67
2022/05/26 03:27:48;;;;;;;1.07;0.90;;;10.10;99.90;11.30;97339.00;;;;5025436;28;20221;-68
2022/05/26 03:30:38;;;;;;;0.90;0.90;;;10.50;99.90;11.50;97344.00;;;;5030748;28;20201;-67
2022/05/26 03:40:45;;;;;;;2.20;0.80;;;10.50;99.90;11.50;97338.00;;;;5030922;28;20237;-68
2022/05/26 03:42:51;;;;;;;2.00;0.70;;;10.40;99.90;11.50;97347.00;;;;5022175;28;20236;-68
2022/05/26 03:45:40;;;;;;;1.00;0.93;;;10.20;99.90;11.50;97348.00;;;;5030921;28;20202;-67
2022/05/26 03:48:31;;;;;;;0.90;0.90;;;10.60;99.90;11.50;97348.00;;;;5031058;28;20229;-68
2022/05/26 03:51:19;;;;;;;2.97;0.80;;;10.40;99.90;11.50;97340.00;;;;5031412;28;20264;-68
2022/05/26 03:54:08;;;;;;;1.00;0.90;;;10.60;99.90;11.50;97343.00;;;;5030058;28;20598;-68
2022/05/26 03:56:57;;;;;;;4.30;0.90;;;10.40;99.90;11.40;97349.00;;;;5036838;28;20200;-68
2022/05/26 03:59:46;;;;;;;2.00;0.90;;;10.30;99.90;11.40;97370.00;;;;5036226;28;20206;-68
2022/05/26 04:02:36;;;;;;;0.80;0.80;;;10.50;99.90;11.00;97369.00;;;;5025391;28;20213;-68
2022/05/26 04:05:26;;;;;;;2.00;1.13;;;10.30;99.90;11.20;97378.00;;;;5039186;28;20205;-68
2022/05/26 04:08:16;;;;;;;1.70;1.20;;;10.30;99.90;11.20;97373.00;;;;5029820;28;20227;-67
2022/05/26 04:11:04;;;;;;;0.90;0.90;;;10.40;99.90;11.60;97387.00;;;;5029349;28;20208;-67
2022/05/26 04:13:54;;;;;;;1.10;1.00;;;10.40;99.90;11.60;97398.00;;;;5029397;28;20583;-67
2022/05/26 04:16:43;;;;;;;2.63;1.00;;;10.40;99.90;11.60;97399.00;;;;5027694;28;20217;-68
2022/05/26 04:19:32;;;;;;;2.07;1.50;;;10.60;99.90;11.70;97412.00;;;;5018018;28;20217;-68
2022/05/26 04:22:23;;;;;;;2.27;1.67;;;10.60;99.90;12.10;97396.00;;;;5028676;28;20715;-67
2022/05/26 04:25:13;;;;;;;1.77;1.67;;;10.60;99.90;12.20;97394.00;;;;5028571;28;20204;-68
2022/05/26 04:28:02;;;;;;;2.77;1.40;;;10.90;99.90;12.20;97385.00;;;;5027963;28;20259;-68
2022/05/26 04:30:50;;;;;;;2.00;1.90;;;10.80;99.90;12.20;97378.00;;;;5028471;28;20189;-68
2022/05/26 04:33:39;;;;;;;2.70;1.70;;;11.00;99.90;12.30;97388.00;;;;5022954;28;20224;-68
2022/05/26 04:36:28;;;;;;;3.10;1.40;;;10.80;99.90;12.10;97385.00;;;;5027850;28;20205;-68
2022/05/26 04:39:18;;;;;;;3.67;1.17;;;11.10;99.90;11.90;97407.00;;;;5027414;28;20205;-68
2022/05/26 04:42:09;;;;;;;4.43;1.77;;;11.00;99.90;12.10;97402.00;;;;5022721;28;20884;-68
2022/05/26 04:44:59;;;;;;;3.73;1.77;;;11.00;99.90;12.50;97399.00;;;;5027760;28;20212;-68
2022/05/26 04:47:47;;;;;;;1.67;1.47;;;11.30;99.90;12.60;97414.00;;;;5025123;28;20711;-67
2022/05/26 04:50:37;;;;;;;2.73;1.80;;;11.40;99.90;12.80;97413.00;;;;5028222;28;20201;-68
2022/05/26 04:53:25;;;;;;;5.50;1.67;;;11.40;99.90;12.80;97422.00;;;;5026271;28;20232;-68
2022/05/26 04:56:16;;;;;;;1.97;1.40;;;11.60;99.90;12.60;97423.00;;;;5021541;28;20201;-68
2022/05/26 04:59:07;;;;;;;2.17;1.80;;;11.50;99.90;12.70;97425.00;;;;5024647;28;20680;-68
2022/05/26 05:01:55;;;;;;;4.07;2.03;;;11.60;99.90;12.70;97432.00;;;;5026429;28;20197;-68
2022/05/26 05:04:48;;;;;;;2.60;2.03;;;11.50;99.90;12.60;97434.00;;;;5028950;28;20229;-67
2022/05/26 05:07:37;;;;;;;3.43;2.73;;;11.70;99.90;12.60;97436.00;;;;5016156;28;20716;-68
2022/05/26 05:10:25;;;;;;;3.30;2.53;;;11.70;99.90;12.60;97435.00;;;;5023866;28;20201;-68
2022/05/26 05:13:15;;;;;;;3.47;2.20;;;11.70;99.90;12.90;97445.00;;;;5028256;28;20225;-68
2022/05/26 05:16:09;;;;;;;3.23;2.50;;;11.40;99.90;13.10;97452.00;;;;5028868;28;20220;-68
2022/05/26 05:18:59;;;;;;;3.60;2.30;;;11.80;99.90;13.20;97442.00;;;;5012541;28;20204;-68
2022/05/26 05:21:55;;;;;;;4.53;2.80;;;11.90;99.90;13.20;97455.00;;;;5030093;28;20197;-68
2022/05/26 05:24:50;;;;;;;3.63;2.37;;;12.00;99.90;13.10;97452.00;;;;5027232;28;20210;-68
2022/05/26 05:27:43;;;;;;;3.60;2.37;;;11.80;99.90;12.90;97444.00;;;;5022574;28;20262;-67
2022/05/26 05:30:38;;;;;;;6.53;2.60;;;12.00;99.90;13.00;97448.00;;;;5026033;28;20224;-68
2022/05/26 05:33:33;;;;;;;3.33;2.50;;;12.00;99.90;13.10;97447.00;;;;5027599;28;20334;-68
2022/05/26 05:36:26;;;;;;;5.13;3.03;;;12.20;99.90;13.30;97456.00;;;;5025263;28;20799;-68
2022/05/26 05:39:15;;;;;;;4.20;2.63;;;12.10;99.90;13.30;97441.00;;;;5026996;28;20202;-69
2022/05/26 05:42:05;;;;;;;5.03;2.50;;;12.20;99.90;13.50;97441.00;;;;5026081;28;20209;-68
2022/05/26 05:44:54;;;;;;;4.00;3.03;;;12.30;99.90;13.50;97446.00;;;;5020752;28;20201;-68
2022/05/26 05:47:44;;;;;;;5.33;3.50;;;12.20;99.90;13.40;97437.00;;;;5030645;28;20684;-68
2022/05/26 05:50:33;;;;;;;5.97;3.17;;;12.30;99.90;13.50;97441.00;;;;5031481;28;20206;-68
2022/05/26 05:53:22;;;;;;;3.83;3.40;;;12.20;99.90;13.60;97442.00;;;;5029816;28;20233;-68
2022/05/26 05:56:11;;;;;;;5.77;3.70;;;12.40;99.90;13.80;97445.00;;;;5021257;28;20228;-68
2022/05/26 05:59:00;;;;;;;5.60;4.27;;;12.50;99.90;13.60;97449.00;;;;5029635;28;20276;-68
2022/05/26 06:01:48;;;;;;;4.20;3.23;;;12.40;99.90;13.70;97453.00;;;;5026489;28;20204;-68
2022/05/26 06:04:42;;;;;;;4.53;3.90;;;12.70;99.90;13.80;97452.00;;;;5032268;28;20585;-68
2022/05/26 06:07:31;;;;;;;7.00;3.57;;;12.50;99.90;13.90;97441.00;;;;5022852;28;20586;-68
2022/05/26 06:10:20;;;;;;;6.67;4.30;;;12.60;99.90;14.10;97442.00;;;;5028358;28;20193;-68
2022/05/26 06:13:09;;;;;;;6.60;4.43;;;12.80;99.90;14.00;97437.00;;;;5031875;28;20236;-68
2022/05/26 06:15:59;;;;;;;6.93;4.33;;;12.40;99.90;14.40;97447.00;;;;5031374;28;20214;-68
2022/05/26 06:18:50;;;;;;;4.80;4.03;;;12.80;99.90;14.50;97443.00;;;;5024354;28;20206;-68
2022/05/26 06:21:41;;;;;;;4.70;4.10;;;13.10;99.90;14.30;97444.00;;;;5026260;28;20232;-68
2022/05/26 06:24:30;;;;;;;7.37;3.93;;;13.20;99.90;14.40;97447.00;;;;5028802;28;20718;-68
2022/05/26 06:30:31;;;;;;;6.13;4.13;;;13.30;99.90;14.70;97447.00;;;;5027884;28;20979;-68
2022/05/26 06:39:34;;;;;;;5.90;4.13;;;13.50;99.90;15.10;97442.00;;;;5030323;28;20231;-69
2022/05/26 06:42:24;;;;;;;5.73;4.17;;;13.70;99.90;15.10;97444.00;;;;5025175;28;20669;-68
2022/05/26 06:45:13;;;;;;;5.03;4.13;;;13.70;99.90;15.00;97448.00;;;;5031240;28;20201;-69
2022/05/26 06:48:02;;;;;;;5.87;3.47;;;13.70;99.90;15.10;97448.00;;;;5018357;28;20209;-68
2022/05/26 06:50:51;;;;;;;7.73;5.23;;;13.80;99.90;15.40;97450.00;;;;5031035;28;20201;-68
2022/05/26 06:53:40;;;;;;;4.37;3.80;;;13.80;99.90;15.80;97448.00;;;;5030670;28;20213;-68
2022/05/26 06:56:30;;;;;;;4.47;3.20;;;14.40;99.90;15.60;97448.00;;;;5030321;28;20668;-68
2022/05/26 06:59:19;;;;;;;7.27;3.87;;;14.30;99.90;15.80;97452.00;;;;5024203;28;20259;-69
2022/05/26 07:02:13;;;;;;;5.13;4.27;;;14.30;99.90;16.00;97451.00;;;;5028515;28;20201;-69
2022/05/26 07:05:02;;;;;;;5.60;4.30;;;14.40;99.90;16.30;97444.00;;;;5030076;28;20193;-68
2022/05/26 07:07:51;;;;;;;5.80;4.30;;;14.70;99.90;16.80;97447.00;;;;5030694;28;20206;-69
2022/05/26 07:10:40;;;;;;;4.93;4.23;;;14.80;99.90;16.80;97449.00;;;;5017719;28;20688;-68
2022/05/26 07:13:30;;;;;;;4.37;3.97;;;14.90;99.90;17.00;97436.00;;;;5024794;28;20308;-68
2022/05/26 07:16:19;;;;;;;5.70;5.03;;;15.40;99.90;17.10;97452.00;;;;5027172;28;20221;-68
2022/05/26 07:19:08;;;;;;;7.03;4.63;;;15.40;99.90;17.30;97459.00;;;;5023704;28;20673;-68
2022/05/26 07:21:56;;;;;;;4.33;3.90;;;15.40;99.90;17.50;97462.00;;;;5025223;28;20202;-68
2022/05/26 07:24:49;;;;;;;5.13;4.57;;;15.80;99.90;17.50;97464.00;;;;5023641;28;20208;-68
2022/05/26 07:27:38;;;;;;;6.10;4.00;;;15.70;99.90;17.80;97461.00;;;;5029225;28;20578;-68
2022/05/26 07:30:28;;;;;;;4.70;3.97;;;15.90;99.90;18.10;97465.00;;;;5029134;28;20229;-68
2022/05/26 07:33:17;;;;;;;4.63;4.03;;;16.10;99.90;17.80;97459.00;;;;5027167;28;20602;-68
2022/05/26 07:36:08;;;;;;;6.43;4.27;;;16.00;99.90;18.10;97440.00;;;;5022552;28;20712;-68
2022/05/26 07:42:22;;;;;;;4.73;3.63;;;16.70;99.90;18.90;97461.00;;;;4980167;28;20214;-68
2022/05/26 07:45:12;;;;;;;3.50;3.07;;;16.80;99.90;19.00;97453.00;;;;4982726;28;20214;-69
2022/05/26 07:48:02;;;;;;;4.90;4.43;;;16.90;99.90;19.30;97449.00;;;;5017676;28;20208;-68
2022/05/26 07:50:51;;;;;;;5.27;3.93;;;17.40;99.90;19.80;97451.00;;;;5023256;28;20220;-68
2022/05/26 07:53:40;;;;;;;4.70;4.30;;;17.40;99.90;19.60;97471.00;;;;5017929;28;20228;-68
2022/05/26 07:56:33;;;;;;;4.27;3.70;;;17.60;99.90;19.50;97457.00;;;;5026753;28;20953;-68
2022/05/26 07:59:22;;;;;;;5.17;3.70;;;17.60;99.90;19.60;97460.00;;;;5020327;28;20224;-69
2022/05/26 08:02:11;;;;;;;7.90;4.07;;;17.70;99.90;19.80;97464.00;;;;5024127;28;20244;-68
2022/05/26 08:05:01;;;;;;;5.30;3.77;;;18.10;99.90;19.90;97461.00;;;;5020901;28;20583;-69
2022/05/26 08:07:50;;;;;;;5.17;4.60;;;18.10;99.90;19.80;97458.00;;;;5023111;28;20193;-69
2022/05/26 08:10:39;;;;;;;3.60;3.30;;;18.20;99.90;20.30;97463.00;;;;5027498;28;20224;-68
2022/05/26 08:13:28;;;;;;;4.90;3.83;;;18.20;99.90;19.90;97472.00;;;;5028189;28;20228;-69
2022/05/26 08:16:17;;;;;;;4.77;3.77;;;18.40;99.90;20.40;97473.00;;;;5026722;28;20594;-69
2022/05/26 08:19:06;;;;;;;4.37;3.13;;;18.30;99.90;20.30;97475.00;;;;5027956;28;20201;-69
2022/05/26 08:21:57;;;;;;;3.43;3.07;;;18.40;99.90;20.90;97472.00;;;;5026292;28;20205;-68
2022/05/26 08:24:51;;;;;;;4.20;3.40;;;18.60;99.90;21.00;97471.00;;;;5026621;28;20216;-69
2022/05/26 08:27:40;;;;;;;4.87;3.43;;;18.90;99.90;20.40;97479.00;;;;5020901;28;20209;-68
2022/05/26 08:30:29;;;;;;;4.53;3.33;;;18.90;99.90;21.00;97473.00;;;;5024563;28;20720;-68
2022/05/26 08:33:18;;;;;;;6.53;3.23;;;19.20;99.90;21.30;97482.00;;;;5025288;28;20225;-69
2022/05/26 08:36:10;;;;;;;4.07;2.40;;;19.30;99.90;21.40;97478.00;;;;5027955;28;20212;-69
2022/05/26 08:39:00;;;;;;;4.93;2.30;;;19.20;99.90;21.80;97474.00;;;;5028329;28;20208;-69
2022/05/26 08:41:52;;;;;;;2.70;2.50;;;19.50;99.90;22.30;97474.00;;;;5023925;28;20209;-68
2022/05/26 08:44:42;;;;;;;2.23;2.03;;;20.00;99.90;22.50;97475.00;;;;5022959;28;20722;-69
2022/05/26 08:47:35;;;;;;;4.47;2.53;;;20.00;99.90;22.60;97475.00;;;;5027604;28;20201;-69
2022/05/26 08:50:28;;;;;;;2.97;1.87;;;20.30;99.90;22.70;97485.00;;;;5027880;28;20703;-69
2022/05/26 08:53:26;;;;;;;4.17;2.20;;;20.50;99.90;22.80;97466.00;;;;5024081;28;20229;-70
2022/05/26 08:56:23;;;;;;;2.67;2.17;;;20.70;99.90;22.90;97460.00;;;;5027577;28;20201;-69
2022/05/26 08:59:15;;;;;;;3.27;1.90;;;20.90;99.90;22.80;97465.00;;;;5025600;28;20576;-69
2022/05/26 09:02:05;;;;;;;2.60;1.60;;;21.10;99.90;23.30;97454.00;;;;5028268;28;20205;-70
2022/05/26 09:04:56;;;;;;;1.70;1.50;;;21.40;99.90;23.30;97462.00;;;;5019920;28;20205;-69
2022/05/26 09:14:25;;;;;;;3.27;1.47;;;21.70;99.90;24.00;97457.00;;;;5024731;28;20594;-70
2022/05/26 09:17:15;;;;;;;2.43;1.73;;;21.90;99.90;24.40;97466.00;;;;5029067;28;20222;-70
2022/05/26 09:20:28;;;;;;;5.73;2.30;;;22.10;99.90;24.50;97464.00;;;;5028725;28;20205;-70
2022/05/26 09:23:24;;;;;;;7.13;2.40;;;22.50;99.90;25.00;97454.00;;;;5030021;28;20225;-70
2022/05/26 09:26:18;;;;;;;3.83;2.43;;;22.70;99.90;25.20;97466.00;;;;5023412;28;20210;-70
2022/05/26 09:29:10;;;;;;;7.00;3.17;;;22.80;99.90;24.10;97478.00;;;;5019411;28;20209;-68
2022/05/26 09:32:02;;;;;;;10.57;3.47;;;22.70;99.90;24.50;97475.00;;;;5027414;28;20211;-70
2022/05/26 09:35:15;;;;;;;11.17;2.63;;;22.80;99.90;24.60;97465.00;;;;5029589;28;20700;-71
2022/05/26 09:38:06;;;;;;;8.13;3.57;;;22.60;99.90;24.70;97457.00;;;;5021648;28;20217;-71
2022/05/26 09:41:07;;;;;;;7.50;2.83;;;22.70;99.90;25.00;97468.00;;;;5020023;28;20276;-70
2022/05/26 09:43:59;;;;;;;11.10;3.40;;;22.80;99.90;25.60;97460.00;;;;5027067;28;20692;-70
2022/05/26 09:46:51;;;;;;;9.90;2.83;;;23.20;99.90;25.40;97466.00;;;;5026944;28;20725;-72
2022/05/26 09:49:42;;;;;;;6.57;2.40;;;23.30;99.90;25.00;97464.00;;;;5027330;28;20574;-72
2022/05/26 09:52:42;;;;;;;5.47;3.20;;;23.10;99.90;24.60;97474.00;;;;5026229;28;20227;-68
2022/05/26 09:55:33;;;;;;;2.97;1.03;;;23.30;99.90;24.50;97487.00;;;;5026885;28;20212;-69
2022/05/26 09:58:29;;;;;;;6.33;1.50;;;23.00;99.90;23.90;97499.00;;;;5018855;28;20621;-67
2022/05/26 10:01:43;;;;;;;5.40;1.63;;;22.80;99.90;23.60;97490.00;;;;5022306;28;20657;-67
2022/05/26 10:05:02;;;;;;;5.13;1.50;;;22.40;99.90;23.40;97489.00;;;;5026053;28;20225;-68
2022/05/26 10:08:03;;;;;;;4.13;1.43;;;21.90;99.90;22.70;97488.00;;;;5019188;28;20205;-66
2022/05/26 10:10:59;;;;;;;2.43;0.93;;;21.90;99.90;22.70;97491.00;;;;5016281;28;20228;-69
2022/05/26 10:14:08;;;;;;;1.27;1.13;;;21.50;99.90;22.80;97489.00;;;;5016506;28;20217;-70
2022/05/26 10:17:07;;;;;;;3.40;1.43;;;21.40;99.90;23.30;97496.00;;;;5021764;28;20217;-70
2022/05/26 10:20:26;;;;;;;3.87;1.70;;;21.60;99.90;23.40;97492.00;;;;5021630;28;20925;-67
2022/05/26 10:23:40;;;;;;;2.83;1.67;;;21.70;99.90;23.60;97487.00;;;;5021978;28;20221;-66
2022/05/26 10:26:39;;;;;;;4.97;1.60;;;21.60;99.90;23.10;97481.00;;;;5023513;28;20212;-67
2022/05/26 10:29:56;;;;;;;3.93;1.90;;;21.90;99.90;22.40;97476.00;;;;5023818;28;20205;-70
2022/05/26 10:33:01;;;;;;;4.57;1.70;;;21.80;99.90;23.30;97485.00;;;;5013310;28;20237;-70
2022/05/26 10:36:03;;;;;;;5.13;2.23;;;21.50;99.90;23.80;97491.00;;;;5017943;28;20204;-69
2022/05/26 10:39:09;;;;;;;2.40;2.20;;;21.70;99.90;22.90;97489.00;;;;5022554;28;20201;-70
2022/05/26 10:42:04;;;;;;;3.27;2.07;;;21.60;99.90;22.40;97494.00;;;;5020179;28;20197;-70
2022/05/26 10:45:06;;;;;;;5.20;2.77;;;21.60;99.90;23.10;97487.00;;;;5019367;28;20212;-69
2022/05/26 10:48:04;;;;;;;2.70;1.93;;;21.30;99.90;23.20;97470.00;;;;5024031;28;20228;-70
2022/05/26 10:51:01;;;;;;;3.57;1.47;;;21.40;99.90;24.00;97470.00;;;;5021921;28;20616;-70
2022/05/26 10:53:55;;;;;;;5.33;2.00;;;21.70;99.90;24.20;97480.00;;;;5021916;28;20718;-69
2022/05/26 10:56:52;;;;;;;3.70;1.47;;;22.00;99.90;23.70;97467.00;;;;5011379;28;20209;-70
2022/05/26 10:59:46;;;;;;;3.10;1.87;;;22.10;99.90;25.20;97448.00;;;;5018696;28;20201;-69
2022/05/26 11:02:42;;;;;;;1.50;1.40;;;22.30;99.90;25.00;97460.00;;;;5016843;28;20220;-70
2022/05/26 11:05:38;;;;;;;5.07;1.53;;;22.70;99.90;25.10;97473.00;;;;5019063;28;20686;-72
2022/05/26 11:08:37;;;;;;;3.57;1.37;;;22.80;99.90;25.20;97473.00;;;;5023234;28;20201;-72
2022/05/26 11:11:36;;;;;;;3.80;1.50;;;22.90;99.90;25.10;97476.00;;;;5015446;28;20233;-72
2022/05/26 11:17:59;;;;;;;4.67;1.37;;;23.20;99.90;25.10;97471.00;;;;4979375;28;20207;-69
2022/05/26 11:20:53;;;;;;;3.83;1.97;;;23.20;99.90;24.80;97475.00;;;;4982507;28;20198;-69
2022/05/26 11:23:44;;;;;;;1.60;1.10;;;23.10;99.90;25.00;97474.00;;;;5022414;28;20259;-69
2022/05/26 11:26:41;;;;;;;2.27;1.43;;;23.20;99.90;25.10;97474.00;;;;5020120;28;20197;-69
2022/05/26 11:29:36;;;;;;;3.53;1.80;;;23.10;99.90;25.20;97478.00;;;;5024323;28;20197;-70
2022/05/26 11:39:01;;;;;;;1.73;1.17;;;23.40;99.90;25.80;97455.00;;;;4968628;28;20205;-69
2022/05/26 11:41:55;;;;;;;3.27;1.30;;;23.60;99.90;26.60;97450.00;;;;4967517;28;20216;-69
2022/05/26 11:44:55;;;;;;;2.97;1.90;;;23.90;99.90;27.00;97449.00;;;;5015554;28;20215;-69
2022/05/26 11:47:54;;;;;;;5.17;1.53;;;24.20;99.90;27.30;97445.00;;;;5021735;28;20219;-69
2022/05/26 11:50:59;;;;;;;5.70;1.73;;;24.60;99.90;27.40;97444.00;;;;5024195;28;20238;-69
2022/05/26 11:53:49;;;;;;;6.93;1.60;;;24.90;99.90;28.40;97445.00;;;;5021401;28;21166;-69
2022/05/26 11:56:49;;;;;;;4.23;1.70;;;25.30;99.90;28.40;97440.00;;;;5019204;28;20824;-70
2022/05/26 11:59:48;;;;;;;1.57;1.23;;;25.80;99.90;27.80;97420.00;;;;5032580;28;20207;-69
2022/05/26 12:02:37;;;;;;;3.07;1.17;;;25.80;99.90;27.10;97445.00;;;;5032068;28;20234;-70
2022/05/26 12:05:57;;;;;;;3.73;1.80;;;25.70;99.90;27.70;97437.00;;;;5026213;28;20891;-69
2022/05/26 12:09:01;;;;;;;2.23;1.33;;;25.60;99.90;27.50;97405.00;;;;5017280;28;20794;-70
2022/05/26 12:12:03;;;;;;;2.83;1.40;;;25.80;99.90;29.50;97410.00;;;;5020025;28;20743;-70
2022/05/26 12:15:06;;;;;;;4.50;1.13;;;26.10;99.90;28.60;97341.00;;;;5023693;28;20215;-70
2022/05/26 12:17:56;;;;;;;2.47;1.43;;;26.50;96.80;28.30;97409.00;;;;5014400;28;20713;-70
2022/05/26 12:20:46;;;;;;;2.93;1.20;;;26.50;98.00;28.30;97416.00;;;;5022449;28;20221;-70
2022/05/26 12:23:35;;;;;;;2.60;1.47;;;26.40;98.60;27.90;97419.00;;;;5027909;28;20247;-70
2022/05/26 12:26:49;;;;;;;5.57;1.60;;;26.20;97.20;27.40;97423.00;;;;5023771;28;20706;-69
2022/05/26 12:30:05;;;;;;;1.17;1.00;;;25.80;96.50;27.50;97409.00;;;;5019146;28;20694;-69
2022/05/26 12:32:54;;;;;;;13.67;2.10;;;25.80;96.10;27.50;97409.00;;;;5018080;28;20239;-69
2022/05/26 12:35:53;;;;;;;1.93;0.60;;;25.60;96.90;26.00;97412.00;;;;5019526;28;20744;-68
2022/05/26 12:39:00;;;;;;;1.33;1.03;;;25.30;94.60;25.40;97399.00;;;;5022648;28;20202;-70
2022/05/26 12:41:56;;;;;;;1.27;0.77;;;24.60;93.80;24.70;97397.00;;;;5025500;28;20198;-68
2022/05/26 12:45:52;;;;;;;0.80;0.80;;;24.30;93.20;25.10;97340.00;;;;5022422;28;20648;-68
2022/05/26 12:49:01;;;;;;;0.80;0.80;;;23.80;94.40;27.80;97344.00;;;;5018943;28;20219;-70
2022/05/26 12:52:08;;;;;;;0.70;0.70;;;24.50;97.50;28.70;97381.00;;;;5028234;28;20228;-69
2022/05/26 12:55:21;;;;;;;0.80;0.60;;;25.20;97.80;28.40;97352.00;;;;5022543;28;20214;-69
2022/05/26 12:58:14;;;;;;;1.13;0.73;;;25.60;95.70;29.50;97321.00;;;;5025182;28;20200;-70
2022/05/26 13:01:07;;;;;;;0.70;0.70;;;26.30;95.50;29.60;97321.00;;;;5022014;28;20206;-69
2022/05/26 13:04:05;;;;;;;2.43;0.80;;;26.80;93.40;29.20;97314.00;;;;5029842;28;20617;-69
2022/05/26 13:06:56;;;;;;;1.00;0.80;;;27.10;91.50;29.70;97330.00;;;;5018962;28;20200;-69
2022/05/26 13:09:49;;;;;;;2.77;1.07;;;27.50;92.20;31.20;97323.00;;;;5023602;28;20584;-70
2022/05/26 13:12:38;;;;;;;3.05;0.65;;;27.60;93.90;28.10;97326.00;;;;5030524;28;20240;-67
2022/05/26 13:15:29;;;;;;;0.70;0.70;;;27.90;89.90;29.30;97320.00;;;;5031177;28;20201;-69
2022/05/26 13:18:22;;;;;;;0.90;0.90;;;27.60;91.40;29.20;97320.00;;;;5028468;28;20628;-69
2022/05/26 13:21:17;;;;;;;1.47;0.60;;;27.30;89.10;30.00;97323.00;;;;5034941;28;20678;-69
2022/05/26 13:24:14;;;;;;;0.40;0.40;;;27.70;90.20;28.20;97313.00;;;;5027310;28;20226;-69
2022/05/26 13:27:11;;;;;;;2.65;0.63;;;27.60;87.70;30.30;97326.00;;;;5030193;28;20208;-70
2022/05/26 13:33:07;;;;;;;2.17;0.80;;;27.60;91.20;31.00;97325.00;;;;5022454;28;20216;-70
2022/05/26 13:33:22;;;;;;;0.88;0.88;;;27.90;92.00;31.30;97314.00;;;;5018283;28;20238;-71